Hlavní strana
METAR-TAF:

METAR-TAF

Letiště :

Alta, Norsko

zeměpisná šířka: 69-59N, zeměpisná délka: 023-22E, výška: 0 m

Aktuální stav počasí

Zpráva byla vytvořena před 42 minutami, v 21:50 UTC
Západoseverozápadní vítr 6 kt
Teplota -3°C
Vlhkost vzduchu 80%
Tlak 1006 hPa
Viditelnost 10 km a více
Skoro jasno ve výšce 3200 ft
přeháňky v blízkosti

METAR: ENAT 252150Z 29006KT 9999 VCSH FEW032 M03/M06 Q1006 RMK WIND 700FT 23008KT

Čas: 23:32 (22:32 UTC)

Předpověď počasí

Zpráva byla vytvořena před 2 hodinami a 34 minutami, v 19:58 UTC
Předpověď platná od 25 v 19 UTC do 25 v 23 UTC
Severozápadní vítr 12 kt
Viditelnost 10 km a více
Skoro jasno ve výšce 1000 ft
Polojasno ve výšce 1500 ft
Pravděpodobnost 30%
od 25 v 19 UTC do 25 v 23 UTC
Viditelnost: 4000 m
ve výšce 1200 ft
slabé sněhové přeháňky

TAF: ENAT 251958Z 2519/2523 31012KT 9999 FEW010 SCT015 PROB30 2519/2523 4000 -SHSN VV012

Stav a předpovědi počasí z více než 4 000 letišť (zprávy METAR a TAF).

Červené a žluté tečky na mapě představují dostupné meteorologické stanice.

Když kurzor umístíte na tečku, zobrazí se název stanice.

Pak kliknutím zobrazíte stav a předpověď počasí.

Chcete-li změnit mapu, kliknutím na zelené tlačítko se znaménkem +mapu přiblížíte, kliknutím na zelené tlačítko se znaménkem – mapu oddálíte a kliknutím na zelené šipky přejdete na sousední mapy.


METAR-TAF: